createdAt,value
2018-02-21T00:02:15.526Z,48.43
2018-02-21T00:04:42.964Z,49.33
2018-02-21T00:07:10.502Z,46.88
2018-02-21T00:09:37.929Z,50.60
2018-02-21T00:12:05.700Z,45.95
2018-02-21T00:14:33.152Z,50.00
2018-02-21T00:17:00.640Z,47.37
2018-02-21T00:19:28.216Z,51.97
2018-02-21T00:21:55.664Z,49.30
2018-02-21T00:24:23.191Z,45.40
2018-02-21T00:26:50.705Z,52.53
2018-02-21T00:29:18.137Z,48.28
2018-02-21T00:31:45.614Z,48.83
2018-02-21T00:34:13.057Z,49.10
2018-02-21T00:36:40.564Z,50.95
2018-02-21T00:39:08.094Z,48.53
2018-02-21T00:41:35.521Z,53.20
2018-02-21T00:44:03.739Z,47.20
2018-02-21T00:46:31.423Z,54.80
2018-02-21T00:48:59.179Z,51.43
2018-02-21T00:51:26.717Z,56.80
2018-02-21T00:53:54.593Z,54.93
2018-02-21T00:56:22.053Z,54.73
2018-02-21T00:58:49.577Z,55.50
2018-02-21T01:01:17.009Z,57.13
2018-02-21T01:03:44.477Z,56.37
2018-02-21T01:06:11.911Z,54.42
2018-02-21T01:08:39.366Z,60.80
2018-02-21T01:11:06.906Z,57.95
2018-02-21T01:13:34.386Z,53.93
2018-02-21T01:16:02.874Z,59.30
2018-02-21T01:18:30.321Z,56.80
2018-02-21T01:20:57.780Z,58.08
2018-02-21T01:23:25.225Z,53.27
2018-02-21T01:25:52.687Z,58.17
2018-02-21T01:28:20.120Z,56.63
2018-02-21T01:30:47.584Z,52.07
2018-02-21T01:33:15.015Z,54.77
2018-02-21T01:35:42.512Z,60.80
2018-02-21T01:38:10.028Z,53.03
2018-02-21T01:40:37.454Z,56.17
2018-02-21T01:43:05.033Z,58.80
2018-02-21T01:45:32.946Z,58.63
2018-02-21T01:48:00.402Z,54.63
2018-02-21T01:50:39.550Z,55.40
2018-02-21T01:53:07.000Z,56.50
2018-02-21T01:55:34.551Z,56.13
2018-02-21T01:58:03.176Z,54.47
2018-02-21T02:00:30.710Z,56.27
2018-02-21T02:02:58.485Z,55.93
2018-02-21T02:05:25.944Z,56.17
2018-02-21T02:07:53.417Z,54.30
2018-02-21T02:10:20.893Z,56.30
2018-02-21T02:12:48.328Z,54.60
2018-02-21T02:15:15.789Z,56.50
2018-02-21T02:17:43.341Z,56.67
2018-02-21T02:20:10.882Z,56.97
2018-02-21T02:22:38.334Z,57.70
2018-02-21T02:25:05.807Z,57.03
2018-02-21T02:27:33.252Z,56.10
2018-02-21T02:30:00.826Z,57.67
2018-02-21T02:32:28.266Z,57.13
2018-02-21T02:34:55.960Z,56.57
2018-02-21T02:37:23.405Z,57.27
2018-02-21T02:40:07.560Z,55.70
2018-02-21T02:42:35.128Z,57.77
2018-02-21T02:45:03.190Z,55.70
2018-02-21T02:47:30.685Z,61.37
2018-02-21T02:49:58.282Z,56.27
2018-02-21T02:52:25.990Z,64.47
2018-02-21T02:54:53.612Z,55.57
2018-02-21T02:57:21.106Z,59.42
2018-02-21T02:59:48.626Z,62.50
2018-02-21T03:02:16.137Z,59.40
2018-02-21T03:04:43.745Z,57.63
2018-02-21T03:07:11.440Z,56.77
2018-02-21T03:09:39.177Z,61.10
2018-02-21T03:12:06.619Z,56.93
2018-02-21T03:14:34.071Z,54.97
2018-02-21T03:17:01.497Z,62.33
2018-02-21T03:19:28.989Z,54.13
2018-02-21T03:21:56.430Z,60.13
2018-02-21T03:24:24.231Z,59.27
2018-02-21T03:26:51.658Z,64.47
2018-02-21T03:29:19.113Z,61.73
2018-02-21T03:31:46.632Z,59.35
2018-02-21T03:34:14.092Z,61.57
2018-02-21T03:36:41.590Z,63.20
2018-02-21T03:39:09.173Z,65.70
2018-02-21T03:41:36.627Z,59.20
2018-02-21T03:44:04.065Z,64.53
2018-02-21T03:46:31.783Z,62.47
2018-02-21T03:48:59.218Z,60.63
2018-02-21T03:51:26.708Z,64.13
2018-02-21T03:53:54.136Z,65.63
2018-02-21T03:56:21.586Z,67.32
2018-02-21T03:58:49.073Z,64.73
2018-02-21T04:01:16.728Z,70.07
2018-02-21T04:03:44.418Z,65.90
2018-02-21T04:06:11.891Z,63.60
2018-02-21T04:08:39.457Z,63.17
2018-02-21T04:11:06.908Z,63.50
2018-02-21T04:13:34.389Z,66.77
2018-02-21T04:16:01.865Z,62.73
2018-02-21T04:18:29.548Z,62.73
2018-02-21T04:20:57.225Z,65.13
2018-02-21T04:23:24.676Z,64.30
2018-02-21T04:25:52.149Z,64.27
2018-02-21T04:28:19.572Z,65.47
2018-02-21T04:30:47.041Z,63.03
2018-02-21T04:33:14.553Z,65.35
2018-02-21T04:35:42.141Z,69.30
2018-02-21T04:38:09.812Z,60.97
2018-02-21T04:40:37.301Z,65.50
2018-02-21T04:43:04.796Z,66.97
2018-02-21T04:45:32.359Z,65.47
2018-02-21T04:47:59.781Z,65.30
2018-02-21T04:50:27.474Z,71.63
2018-02-21T04:52:55.008Z,71.57
2018-02-21T04:55:43.561Z,66.33
2018-02-21T04:58:15.525Z,67.07
2018-02-21T05:00:43.032Z,67.13
2018-02-21T05:03:10.581Z,65.75
2018-02-21T05:05:38.269Z,66.90
2018-02-21T05:08:05.829Z,65.00
2018-02-21T05:10:34.019Z,66.25
2018-02-21T05:13:01.685Z,65.60
2018-02-21T05:15:29.157Z,70.03
2018-02-21T05:17:56.606Z,62.83
2018-02-21T05:20:25.173Z,63.73
2018-02-21T05:22:52.646Z,62.37
2018-02-21T05:25:20.082Z,67.63
2018-02-21T05:27:47.504Z,62.90
2018-02-21T05:30:14.952Z,71.70
2018-02-21T05:32:42.388Z,68.33
2018-02-21T05:35:09.832Z,62.15
2018-02-21T05:37:37.254Z,66.53
2018-02-21T05:40:04.698Z,68.27
2018-02-21T05:42:32.141Z,72.67
2018-02-21T05:44:59.638Z,69.03
2018-02-21T05:47:27.064Z,62.10
2018-02-21T05:49:54.506Z,65.07
2018-02-21T05:52:21.939Z,71.10
2018-02-21T05:54:49.475Z,69.70
2018-02-21T05:57:16.959Z,69.70
2018-02-21T05:59:44.577Z,64.67
2018-02-21T06:02:12.085Z,69.60
2018-02-21T06:04:39.549Z,70.33
2018-02-21T06:07:07.180Z,72.87
2018-02-21T06:09:34.616Z,67.27
2018-02-21T06:12:02.098Z,61.15
2018-02-21T06:14:29.638Z,62.90
2018-02-21T06:16:57.214Z,63.38
2018-02-21T06:19:24.791Z,64.93
2018-02-21T06:21:52.302Z,68.33
2018-02-21T06:24:20.897Z,71.27
2018-02-21T06:26:48.393Z,68.37
2018-02-21T06:29:15.980Z,68.37
2018-02-21T06:31:43.413Z,65.67
2018-02-21T06:34:10.985Z,63.43
2018-02-21T06:36:38.465Z,60.88
2018-02-21T06:39:05.942Z,65.00
2018-02-21T06:41:34.324Z,61.35
2018-02-21T06:44:01.829Z,67.27
2018-02-21T06:46:29.675Z,66.10
2018-02-21T06:48:57.169Z,65.60
2018-02-21T06:51:24.607Z,64.10
2018-02-21T06:53:52.498Z,59.17
2018-02-21T06:56:19.971Z,69.67
2018-02-21T06:58:48.025Z,64.00
2018-02-21T07:01:15.511Z,62.47
2018-02-21T07:03:42.945Z,64.40
2018-02-21T07:06:10.394Z,67.82
2018-02-21T07:08:37.858Z,61.57
2018-02-21T07:11:05.546Z,65.13
2018-02-21T07:13:33.218Z,58.80
2018-02-21T07:16:00.838Z,65.90
2018-02-21T07:18:28.274Z,62.60
2018-02-21T07:20:55.829Z,56.50
2018-02-21T07:23:23.282Z,61.00
2018-02-21T07:25:50.757Z,59.63
2018-02-21T07:28:18.445Z,70.77
2018-02-21T07:30:45.967Z,61.92
2018-02-21T07:33:13.486Z,60.93
2018-02-21T07:35:41.010Z,60.63
2018-02-21T07:38:08.471Z,59.27
2018-02-21T07:40:35.933Z,53.87
2018-02-21T07:43:03.577Z,57.83
2018-02-21T07:45:31.001Z,56.77
2018-02-21T07:47:58.589Z,59.20
2018-02-21T07:50:26.244Z,56.47
2018-02-21T07:52:53.731Z,58.27
2018-02-21T07:55:21.381Z,59.90
2018-02-21T07:57:48.890Z,58.53
2018-02-21T08:00:16.330Z,54.97
2018-02-21T08:02:43.901Z,55.72
2018-02-21T08:05:11.554Z,61.93
2018-02-21T08:07:39.006Z,59.17
2018-02-21T08:10:06.506Z,55.03
2018-02-21T08:12:34.791Z,56.53
2018-02-21T08:15:02.233Z,55.87
2018-02-21T08:17:29.762Z,57.63
2018-02-21T08:19:57.330Z,64.40
2018-02-21T08:22:24.902Z,58.38
2018-02-21T08:24:52.532Z,52.40
2018-02-21T08:27:19.990Z,55.20
2018-02-21T08:29:47.436Z,59.70
2018-02-21T08:32:14.890Z,57.30
2018-02-21T08:34:42.365Z,54.00
2018-02-21T08:37:09.821Z,55.42
2018-02-21T08:39:37.324Z,52.03
2018-02-21T08:42:04.930Z,51.03
2018-02-21T08:44:32.387Z,49.70
2018-02-21T08:46:59.842Z,53.50
2018-02-21T08:49:28.180Z,56.60
2018-02-21T08:51:55.633Z,49.80
2018-02-21T08:54:23.057Z,54.85
2018-02-21T08:56:50.521Z,48.20
2018-02-21T08:59:17.978Z,48.28
2018-02-21T09:01:45.435Z,49.57
2018-02-21T09:04:12.889Z,47.60
2018-02-21T09:06:40.628Z,49.08
2018-02-21T09:09:08.089Z,44.47
2018-02-21T09:11:35.607Z,46.40
2018-02-21T09:14:03.074Z,46.13
2018-02-21T09:16:30.546Z,47.87
2018-02-21T09:18:58.180Z,46.47
2018-02-21T09:21:25.638Z,45.20
2018-02-21T09:23:53.106Z,51.83
2018-02-21T09:26:20.551Z,46.20
2018-02-21T09:28:48.073Z,46.85
2018-02-21T09:31:15.501Z,47.55
2018-02-21T09:33:42.952Z,48.20
2018-02-21T09:36:10.445Z,43.23
2018-02-21T09:38:37.933Z,42.50
2018-02-21T09:41:05.431Z,45.00
2018-02-21T09:43:32.860Z,42.30
2018-02-21T09:46:00.324Z,46.37
2018-02-21T09:48:27.811Z,43.00
2018-02-21T09:50:55.260Z,41.33
2018-02-21T09:53:22.760Z,44.43
2018-02-21T09:55:50.208Z,37.25
2018-02-21T09:58:17.647Z,39.37
2018-02-21T10:00:45.113Z,42.43
2018-02-21T10:03:12.597Z,43.07
2018-02-21T10:05:40.058Z,39.20
2018-02-21T10:08:07.489Z,40.63
2018-02-21T10:10:35.326Z,40.97
2018-02-21T10:13:02.792Z,43.27
2018-02-21T10:15:30.241Z,43.53
2018-02-21T10:17:57.725Z,41.03
2018-02-21T10:20:25.184Z,45.20
2018-02-21T10:22:52.654Z,45.12
2018-02-21T10:25:20.129Z,48.20
2018-02-21T10:27:47.586Z,40.43
2018-02-21T10:30:15.033Z,39.93
2018-02-21T10:32:42.598Z,40.55
2018-02-21T10:35:10.039Z,36.60
2018-02-21T10:37:37.518Z,39.27
2018-02-21T10:40:05.490Z,43.55
2018-02-21T10:42:32.930Z,42.67
2018-02-21T10:45:00.401Z,41.50
2018-02-21T10:47:27.991Z,41.93
2018-02-21T10:49:55.444Z,40.43
2018-02-21T10:52:22.948Z,37.80
2018-02-21T10:54:50.421Z,39.17
2018-02-21T10:57:17.872Z,39.03
2018-02-21T10:59:45.774Z,36.00
2018-02-21T11:02:13.267Z,36.10
2018-02-21T11:04:40.769Z,35.07
2018-02-21T11:07:08.212Z,35.47
2018-02-21T11:09:35.685Z,34.10
2018-02-21T11:12:03.225Z,36.33
2018-02-21T11:14:30.668Z,38.73
2018-02-21T11:16:58.125Z,36.80
2018-02-21T11:19:25.574Z,33.77
2018-02-21T11:21:53.027Z,32.50
2018-02-21T11:24:20.697Z,30.25
2018-02-21T11:26:48.225Z,28.15
2018-02-21T11:29:15.655Z,31.02
2018-02-21T11:31:53.324Z,33.30
2018-02-21T11:34:32.251Z,34.85
2018-02-21T11:37:00.205Z,29.00
2018-02-21T11:39:27.691Z,27.63
2018-02-21T11:41:55.135Z,28.30
2018-02-21T11:44:22.570Z,27.55
2018-02-21T11:46:50.042Z,30.33
2018-02-21T11:49:17.485Z,24.85
2018-02-21T11:51:44.947Z,26.73
2018-02-21T11:54:12.640Z,26.23
2018-02-21T11:56:40.136Z,28.17
2018-02-21T11:59:07.637Z,27.07
2018-02-21T12:01:35.843Z,26.67
2018-02-21T12:04:03.293Z,30.00
2018-02-21T12:06:30.771Z,23.45
2018-02-21T12:08:58.328Z,23.87
2018-02-21T12:11:25.919Z,27.63
2018-02-21T12:13:53.610Z,26.47
2018-02-21T12:16:21.094Z,26.92
2018-02-21T12:18:48.525Z,26.07
2018-02-21T12:21:16.041Z,25.40
2018-02-21T12:23:43.787Z,23.30
2018-02-21T12:26:11.379Z,25.77
2018-02-21T12:28:38.847Z,26.23
2018-02-21T12:31:06.327Z,25.27
2018-02-21T12:33:34.089Z,26.07
2018-02-21T12:36:01.617Z,24.27
2018-02-21T12:38:29.095Z,27.53
2018-02-21T12:41:02.187Z,24.70
2018-02-21T12:43:29.669Z,25.60
2018-02-21T12:45:57.408Z,25.83
2018-02-21T12:48:24.894Z,26.23
2018-02-21T12:50:52.377Z,25.47
2018-02-21T12:53:19.829Z,24.33
2018-02-21T12:55:47.301Z,25.33
2018-02-21T12:58:14.770Z,23.77
2018-02-21T13:00:42.236Z,23.30
2018-02-21T13:03:09.672Z,26.27
2018-02-21T13:05:37.222Z,25.70
2018-02-21T13:08:04.675Z,24.30
2018-02-21T13:10:32.149Z,23.30
2018-02-21T13:12:59.633Z,25.43
2018-02-21T13:15:27.315Z,24.53
2018-02-21T13:17:54.769Z,23.87
2018-02-21T13:20:22.231Z,22.77
2018-02-21T13:22:49.684Z,24.07
2018-02-21T13:25:17.212Z,24.10
2018-02-21T13:27:44.848Z,24.50
2018-02-21T13:30:12.351Z,25.67
2018-02-21T13:32:39.795Z,25.43
2018-02-21T13:35:07.278Z,23.97
2018-02-21T13:37:37.649Z,21.90
2018-02-21T13:40:06.274Z,23.83
2018-02-21T13:42:33.711Z,22.97
2018-02-21T13:45:01.234Z,25.33
2018-02-21T13:47:28.852Z,23.93
2018-02-21T13:49:56.361Z,24.80
2018-02-21T13:52:23.878Z,23.50
2018-02-21T13:54:51.321Z,24.10
2018-02-21T13:57:18.823Z,23.75
2018-02-21T13:59:46.291Z,23.12
2018-02-21T14:02:13.774Z,23.00
2018-02-21T14:04:41.353Z,24.92
2018-02-21T14:07:08.865Z,22.23
2018-02-21T14:09:36.437Z,22.40
2018-02-21T14:12:03.894Z,21.40
2018-02-21T14:14:31.898Z,22.43
2018-02-21T14:16:59.557Z,20.87
2018-02-21T14:19:27.004Z,21.43
2018-02-21T14:21:54.453Z,21.83
2018-02-21T14:24:21.910Z,22.15
2018-02-21T14:26:49.518Z,22.05
2018-02-21T14:29:17.047Z,19.97
2018-02-21T14:31:44.636Z,21.57
2018-02-21T14:34:12.227Z,21.13
2018-02-21T14:36:39.941Z,20.03
2018-02-21T14:39:08.767Z,21.02
2018-02-21T14:41:37.292Z,19.80
2018-02-21T14:44:04.783Z,21.10
2018-02-21T14:46:32.271Z,22.00
2018-02-21T14:48:59.780Z,23.30
2018-02-21T14:51:27.935Z,23.47
2018-02-21T14:53:55.421Z,24.80
2018-02-21T14:56:22.885Z,25.10
2018-02-21T14:58:50.527Z,23.00
2018-02-21T15:01:18.072Z,22.75
2018-02-21T15:03:45.570Z,22.47
2018-02-21T15:06:13.071Z,22.00
2018-02-21T15:08:40.616Z,22.37
2018-02-21T15:11:08.092Z,24.47
2018-02-21T15:13:35.592Z,25.80
2018-02-21T15:16:03.574Z,23.23
2018-02-21T15:18:31.017Z,22.40
2018-02-21T15:20:58.465Z,21.40
2018-02-21T15:23:26.091Z,23.50
2018-02-21T15:25:53.573Z,27.02
2018-02-21T15:28:21.085Z,23.10
2018-02-21T15:30:49.681Z,22.13
2018-02-21T15:33:17.169Z,22.93
2018-02-21T15:35:44.705Z,23.33
2018-02-21T15:38:12.257Z,21.60
2018-02-21T15:40:39.711Z,21.73
2018-02-21T15:43:07.175Z,25.07
2018-02-21T15:45:34.685Z,18.60
2018-02-21T15:48:02.189Z,19.10
2018-02-21T15:50:29.887Z,21.12
2018-02-21T15:52:57.361Z,21.50
2018-02-21T15:55:24.811Z,21.52
2018-02-21T15:57:52.265Z,26.37
2018-02-21T16:00:19.899Z,21.30
2018-02-21T16:02:47.393Z,22.92
2018-02-21T16:05:14.871Z,20.80
2018-02-21T16:07:42.516Z,22.15
2018-02-21T16:10:10.010Z,22.27
2018-02-21T16:12:37.483Z,23.70
2018-02-21T16:15:04.937Z,22.83
2018-02-21T16:17:32.386Z,23.10
2018-02-21T16:19:59.862Z,21.65
2018-02-21T16:22:27.368Z,22.73
2018-02-21T16:24:54.842Z,26.83
2018-02-21T16:27:22.311Z,21.58
2018-02-21T16:29:50.782Z,22.80
2018-02-21T16:32:18.291Z,22.07
2018-02-21T16:34:45.755Z,22.40
2018-02-21T16:37:13.182Z,20.03
2018-02-21T16:39:40.642Z,22.53
2018-02-21T16:42:08.156Z,23.40
2018-02-21T16:44:35.609Z,23.20
2018-02-21T16:47:03.077Z,21.70
2018-02-21T16:49:30.546Z,25.27
2018-02-21T16:51:58.021Z,21.02
2018-02-21T16:54:27.197Z,23.13
2018-02-21T16:56:54.662Z,23.73
2018-02-21T16:59:22.236Z,22.40
2018-02-21T17:01:49.725Z,24.33
2018-02-21T17:04:17.170Z,24.53
2018-02-21T17:06:44.612Z,23.08
2018-02-21T17:09:13.113Z,22.77
2018-02-21T17:11:40.587Z,20.70
2018-02-21T17:14:08.136Z,22.50
2018-02-21T17:16:35.584Z,23.30
2018-02-21T17:19:04.440Z,22.50
2018-02-21T17:21:32.150Z,22.27
2018-02-21T17:23:59.592Z,22.70
2018-02-21T17:26:27.050Z,20.63
2018-02-21T17:28:54.507Z,23.50
2018-02-21T17:31:22.042Z,22.57
2018-02-21T17:33:49.492Z,24.43
2018-02-21T17:36:16.946Z,24.23
2018-02-21T17:38:44.433Z,23.70
2018-02-21T17:41:17.412Z,23.95
2018-02-21T17:43:44.873Z,29.10
2018-02-21T17:46:12.349Z,24.68
2018-02-21T17:48:42.629Z,25.12
2018-02-21T17:51:10.110Z,25.57
2018-02-21T17:53:37.579Z,23.97
2018-02-21T17:56:05.010Z,24.70
2018-02-21T17:58:32.466Z,24.97
2018-02-21T18:01:00.177Z,23.80
2018-02-21T18:03:27.814Z,23.43
2018-02-21T18:05:55.275Z,25.10
2018-02-21T18:08:22.746Z,23.48
2018-02-21T18:10:50.323Z,24.87
2018-02-21T18:13:17.825Z,26.37
2018-02-21T18:15:45.298Z,23.27
2018-02-21T18:18:12.750Z,22.97
2018-02-21T18:20:40.216Z,22.80
2018-02-21T18:23:07.695Z,23.97
2018-02-21T18:25:35.189Z,26.07
2018-02-21T18:28:02.656Z,24.30
2018-02-21T18:30:30.195Z,23.03
2018-02-21T18:32:57.656Z,24.23
2018-02-21T18:35:25.231Z,25.87
2018-02-21T18:37:52.763Z,25.87
2018-02-21T18:40:20.266Z,25.83
2018-02-21T18:42:47.716Z,25.47
2018-02-21T18:45:15.175Z,26.37
2018-02-21T18:47:42.801Z,30.12
2018-02-21T18:50:10.293Z,27.80
2018-02-21T18:52:38.066Z,27.20
2018-02-21T18:55:05.606Z,29.20
2018-02-21T18:57:33.577Z,27.90
2018-02-21T19:00:01.034Z,28.80
2018-02-21T19:02:28.792Z,30.50
2018-02-21T19:04:56.285Z,30.87
2018-02-21T19:07:23.885Z,28.83
2018-02-21T19:09:51.461Z,28.40
2018-02-21T19:12:19.097Z,29.30
2018-02-21T19:14:47.042Z,29.23
2018-02-21T19:17:15.429Z,33.40
2018-02-21T19:19:42.881Z,33.23
2018-02-21T19:22:11.280Z,35.03
2018-02-21T19:24:38.743Z,33.20
2018-02-21T19:27:06.181Z,36.07
2018-02-21T19:29:33.758Z,39.53
2018-02-21T19:32:01.237Z,37.90
2018-02-21T19:34:28.698Z,35.88
2018-02-21T19:36:56.153Z,36.73
2018-02-21T19:39:23.615Z,36.33
2018-02-21T19:41:51.122Z,34.73
2018-02-21T19:44:18.578Z,38.93
2018-02-21T19:46:46.034Z,36.40
2018-02-21T19:49:13.490Z,39.40
2018-02-21T19:51:40.924Z,37.40
2018-02-21T19:54:08.610Z,42.27
2018-02-21T19:56:36.065Z,37.23
2018-02-21T19:59:03.513Z,39.83
2018-02-21T20:01:31.004Z,38.10
2018-02-21T20:03:58.456Z,38.10
2018-02-21T20:06:25.913Z,37.75
2018-02-21T20:08:53.350Z,40.65
2018-02-21T20:11:20.855Z,37.70
2018-02-21T20:13:48.298Z,38.78
2018-02-21T20:16:15.784Z,39.97
2018-02-21T20:18:43.224Z,41.78
2018-02-21T20:21:10.689Z,39.87
2018-02-21T20:23:38.165Z,41.73
2018-02-21T20:26:05.613Z,37.50
2018-02-21T20:28:33.094Z,39.33
2018-02-21T20:31:00.559Z,39.77
2018-02-21T20:33:28.042Z,39.13
2018-02-21T20:35:55.730Z,40.37
2018-02-21T20:38:23.403Z,37.60
2018-02-21T20:40:51.074Z,42.00
2018-02-21T20:43:18.571Z,41.73
2018-02-21T20:45:46.073Z,41.00
2018-02-21T20:48:13.679Z,39.80
2018-02-21T20:50:42.094Z,42.13
2018-02-21T20:53:09.588Z,40.37
2018-02-21T20:55:38.219Z,47.62
2018-02-21T20:58:05.678Z,40.37
2018-02-21T21:00:33.810Z,38.43
2018-02-21T21:03:01.353Z,43.10
2018-02-21T21:05:28.994Z,39.93
2018-02-21T21:07:56.490Z,40.70
2018-02-21T21:10:23.929Z,41.60
2018-02-21T21:12:51.373Z,43.53
2018-02-21T21:15:18.860Z,43.00
2018-02-21T21:17:46.608Z,37.65
2018-02-21T21:20:14.186Z,42.07
2018-02-21T21:22:41.645Z,39.07
2018-02-21T21:25:09.081Z,40.00
2018-02-21T21:27:37.434Z,40.87
2018-02-21T21:30:04.882Z,37.73
2018-02-21T21:32:32.340Z,38.80
2018-02-21T21:34:59.785Z,38.87
2018-02-21T21:37:27.290Z,44.60
2018-02-21T21:39:54.745Z,41.77
2018-02-21T21:42:23.189Z,38.72
2018-02-21T21:44:50.646Z,38.47
2018-02-21T21:47:18.210Z,40.45
2018-02-21T21:49:45.671Z,38.07
2018-02-21T21:52:13.279Z,40.33
2018-02-21T21:54:41.556Z,40.97
2018-02-21T21:57:09.118Z,40.30
2018-02-21T21:59:36.814Z,41.07
2018-02-21T22:02:05.268Z,43.33
2018-02-21T22:04:32.703Z,37.93
2018-02-21T22:07:00.535Z,41.17
2018-02-21T22:09:27.982Z,41.30
2018-02-21T22:11:55.437Z,39.90
2018-02-21T22:14:22.940Z,40.10
2018-02-21T22:16:50.393Z,37.50
2018-02-21T22:19:17.861Z,40.33
2018-02-21T22:21:46.427Z,41.25
2018-02-21T22:24:14.043Z,39.60
2018-02-21T22:26:41.559Z,35.10
2018-02-21T22:29:09.220Z,44.87
2018-02-21T22:31:36.968Z,38.10
2018-02-21T22:34:04.505Z,40.70
2018-02-21T22:36:32.020Z,37.67
2018-02-21T22:38:59.473Z,39.30
2018-02-21T22:41:27.038Z,39.00
2018-02-21T22:43:54.523Z,38.28
2018-02-21T22:46:22.069Z,34.63
2018-02-21T22:48:49.533Z,37.20
2018-02-21T22:51:17.182Z,35.90
2018-02-21T22:53:44.638Z,38.90
2018-02-21T22:56:12.101Z,36.97
2018-02-21T22:58:39.544Z,36.00
2018-02-21T23:01:07.004Z,39.03
2018-02-21T23:03:34.433Z,36.50
2018-02-21T23:06:01.881Z,35.13
2018-02-21T23:08:29.324Z,37.27
2018-02-21T23:10:56.927Z,35.43
2018-02-21T23:13:24.450Z,36.00
2018-02-21T23:15:51.921Z,34.50
2018-02-21T23:18:19.367Z,36.75
2018-02-21T23:20:46.815Z,34.85
2018-02-21T23:23:14.266Z,34.27
2018-02-21T23:25:41.793Z,38.73
2018-02-21T23:28:09.250Z,34.07
2018-02-21T23:30:36.709Z,35.20
2018-02-21T23:33:04.185Z,35.03
2018-02-21T23:35:31.634Z,34.27
2018-02-21T23:37:59.168Z,35.50
2018-02-21T23:40:26.610Z,36.30
2018-02-21T23:42:54.061Z,36.47
2018-02-21T23:45:21.730Z,33.70
2018-02-21T23:47:49.191Z,32.57
2018-02-21T23:50:16.642Z,35.60
2018-02-21T23:52:44.153Z,32.30
2018-02-21T23:55:11.689Z,33.93
2018-02-21T23:57:39.147Z,33.43
